Pathfork, Kentucky
Current Conditions -  °F | °C
As of 4:55 AM on Saturday 25 Oct 2014 (Local Time) from KI35 Reporting Station
Overcast Overcast  
Wind Chill: 37°   Ceiling: 100
Heat Index: 37°   Visibility: 0mi
Dew Point: 37°   Wind: 0mph
Humidity: 100%   Direction: NA
Pressure: 30.09"   Gusts: NA
Location:  36.76°N, 83.46°W
Report Text: KI35 250855Z AUTO 00000KT M1/4SM OVC001 03/03 A3009 RMK AO1
Loading
Personal Weather Stations






























Interactive Weather Map
Tropical Storm Tracking
New forecast layout! Learn more

10-Day Weather Forecast

Advertisements
Track Severe Weather on mobile